createdAt,value
2018-07-14T00:01:42.413Z,21.90
2018-07-14T00:04:11.609Z,21.90
2018-07-14T00:06:40.816Z,21.80
2018-07-14T00:09:10.005Z,21.80
2018-07-14T00:11:39.209Z,21.80
2018-07-14T00:14:08.499Z,21.80
2018-07-14T00:16:37.748Z,21.80
2018-07-14T00:19:06.976Z,21.80
2018-07-14T00:21:36.179Z,21.80
2018-07-14T00:24:05.401Z,21.80
2018-07-14T00:26:34.618Z,21.80
2018-07-14T00:29:03.823Z,21.80
2018-07-14T00:31:33.003Z,21.70
2018-07-14T00:34:02.264Z,21.70
2018-07-14T00:36:31.509Z,21.70
2018-07-14T00:39:00.697Z,21.70
2018-07-14T00:41:29.916Z,21.70
2018-07-14T00:43:59.105Z,21.70
2018-07-14T00:46:28.453Z,21.70
2018-07-14T00:48:57.655Z,21.70
2018-07-14T00:51:26.856Z,21.60
2018-07-14T00:53:56.053Z,21.60
2018-07-14T00:56:25.288Z,21.60
2018-07-14T00:58:54.492Z,21.60
2018-07-14T01:01:23.885Z,21.50
2018-07-14T01:03:53.093Z,21.60
2018-07-14T01:06:22.390Z,21.60
2018-07-14T01:08:51.592Z,21.60
2018-07-14T01:11:20.804Z,21.60
2018-07-14T01:13:50.079Z,21.60
2018-07-14T01:16:19.284Z,21.60
2018-07-14T01:18:48.643Z,21.60
2018-07-14T01:21:17.845Z,21.60
2018-07-14T01:23:47.015Z,21.50
2018-07-14T01:26:16.277Z,21.50
2018-07-14T01:28:45.482Z,21.50
2018-07-14T01:31:14.711Z,21.50
2018-07-14T01:33:43.985Z,21.50
2018-07-14T01:36:13.277Z,21.50
2018-07-14T01:38:42.511Z,21.50
2018-07-14T01:41:11.731Z,21.50
2018-07-14T01:43:40.937Z,21.50
2018-07-14T01:46:10.173Z,21.50
2018-07-14T01:48:39.392Z,21.40
2018-07-14T01:51:08.814Z,21.40
2018-07-14T01:53:38.008Z,21.40
2018-07-14T01:56:07.263Z,21.40
2018-07-14T01:58:36.464Z,21.40
2018-07-14T02:01:05.664Z,21.40
2018-07-14T02:03:34.828Z,21.40
2018-07-14T02:06:04.510Z,21.40
2018-07-14T02:08:33.735Z,21.40
2018-07-14T02:11:02.940Z,21.40
2018-07-14T02:13:32.134Z,21.40
2018-07-14T02:16:01.430Z,21.30
2018-07-14T02:18:30.628Z,21.30
2018-07-14T02:20:59.836Z,21.30
2018-07-14T02:23:29.134Z,21.30
2018-07-14T02:25:58.360Z,21.30
2018-07-14T02:28:27.559Z,21.30
2018-07-14T02:30:56.781Z,21.30
2018-07-14T02:33:26.327Z,21.30
2018-07-14T02:35:55.624Z,21.30
2018-07-14T02:38:24.877Z,21.30
2018-07-14T02:40:54.068Z,21.30
2018-07-14T02:45:52.040Z,21.20
2018-07-14T02:48:21.240Z,21.20
2018-07-14T02:50:50.440Z,21.20
2018-07-14T02:53:19.641Z,21.20
2018-07-14T02:55:48.989Z,21.20
2018-07-14T02:58:18.208Z,21.20
2018-07-14T03:00:47.413Z,21.10
2018-07-14T03:03:16.612Z,21.10
2018-07-14T03:05:45.833Z,21.10
2018-07-14T03:08:15.024Z,21.10
2018-07-14T03:10:44.351Z,21.10
2018-07-14T03:13:13.550Z,21.10
2018-07-14T03:15:42.874Z,21.10
2018-07-14T03:18:12.104Z,21.10
2018-07-14T03:20:41.301Z,21.10
2018-07-14T03:23:10.500Z,21.10
2018-07-14T03:25:39.723Z,21.10
2018-07-14T03:28:09.020Z,21.10
2018-07-14T03:30:38.234Z,21.10
2018-07-14T03:33:07.459Z,21.10
2018-07-14T03:35:36.793Z,21.10
2018-07-14T03:38:06.016Z,21.10
2018-07-14T03:40:35.324Z,21.00
2018-07-14T03:43:04.877Z,21.10
2018-07-14T03:45:34.157Z,21.10
2018-07-14T03:48:03.372Z,21.10
2018-07-14T03:50:32.624Z,21.10
2018-07-14T03:53:01.823Z,21.00
2018-07-14T03:55:31.052Z,21.00
2018-07-14T03:58:00.221Z,21.00
2018-07-14T04:00:29.519Z,21.00
2018-07-14T04:02:58.712Z,21.00
2018-07-14T04:05:27.986Z,21.00
2018-07-14T04:07:57.188Z,21.00
2018-07-14T04:10:26.410Z,21.00
2018-07-14T04:12:55.609Z,21.00
2018-07-14T04:15:25.163Z,21.00
2018-07-14T04:18:02.756Z,21.00
2018-07-14T04:20:32.189Z,21.00
2018-07-14T04:23:01.897Z,21.00
2018-07-14T04:25:31.708Z,21.00
2018-07-14T04:28:01.524Z,21.00
2018-07-14T04:30:30.896Z,21.00
2018-07-14T04:33:00.124Z,20.90
2018-07-14T04:35:29.352Z,20.90
2018-07-14T04:37:58.549Z,20.90
2018-07-14T04:40:27.746Z,20.90
2018-07-14T04:42:57.049Z,20.80
2018-07-14T04:45:26.925Z,20.70
2018-07-14T04:47:56.169Z,20.70
2018-07-14T04:50:25.433Z,20.70
2018-07-14T05:16:03.522Z,20.80
2018-07-14T05:18:32.845Z,20.80
2018-07-14T05:21:02.185Z,20.80
2018-07-14T05:23:31.438Z,20.80
2018-07-14T05:26:00.682Z,20.80
2018-07-14T05:28:29.983Z,20.80
2018-07-14T05:30:59.244Z,20.80
2018-07-14T05:33:28.510Z,20.80
2018-07-14T05:35:57.782Z,20.80
2018-07-14T05:38:27.345Z,20.80
2018-07-14T05:40:56.783Z,20.80
2018-07-14T05:43:26.258Z,20.80
2018-07-14T05:45:55.727Z,20.80
2018-07-14T05:48:25.545Z,20.80
2018-07-14T05:50:54.850Z,20.80
2018-07-14T05:53:24.183Z,20.80
2018-07-14T05:55:53.514Z,20.80
2018-07-14T05:58:22.963Z,20.90
2018-07-14T06:00:52.343Z,20.90
2018-07-14T06:03:21.816Z,20.90
2018-07-14T06:05:51.228Z,21.00
2018-07-14T06:08:20.591Z,21.10
2018-07-14T06:10:49.888Z,21.10
2018-07-14T06:13:19.225Z,21.10
2018-07-14T06:15:48.736Z,21.10
2018-07-14T06:18:18.132Z,21.20
2018-07-14T06:20:47.493Z,21.20
2018-07-14T06:23:16.752Z,21.20
2018-07-14T06:25:45.951Z,21.30
2018-07-14T06:28:15.161Z,21.30
2018-07-14T06:33:13.196Z,21.40
2018-07-14T06:35:42.430Z,21.40
2018-07-14T06:38:11.824Z,21.40
2018-07-14T06:40:41.274Z,21.50
2018-07-14T06:43:10.604Z,21.50
2018-07-14T06:45:40.190Z,21.60
2018-07-14T06:48:09.447Z,21.60
2018-07-14T06:50:38.820Z,21.60
2018-07-14T06:53:08.415Z,21.70
2018-07-14T06:55:37.962Z,21.70
2018-07-14T06:58:07.400Z,21.70
2018-07-14T07:00:36.737Z,21.70
2018-07-14T07:03:06.083Z,21.80
2018-07-14T07:05:35.357Z,21.80
2018-07-14T07:08:04.767Z,21.80
2018-07-14T07:10:34.127Z,21.80
2018-07-14T07:13:03.407Z,21.90
2018-07-14T07:15:32.729Z,21.90
2018-07-14T07:18:02.063Z,21.90
2018-07-14T07:20:31.448Z,21.90
2018-07-14T07:23:00.764Z,21.90
2018-07-14T07:25:30.124Z,22.00
2018-07-14T07:27:59.441Z,22.00
2018-07-14T07:30:28.796Z,22.00
2018-07-14T07:32:58.096Z,22.00
2018-07-14T07:35:27.406Z,22.10
2018-07-14T07:37:56.753Z,22.10
2018-07-14T07:40:26.128Z,22.10
2018-07-14T07:42:55.380Z,22.10
2018-07-14T07:45:24.710Z,22.10
2018-07-14T07:47:54.150Z,22.20
2018-07-14T07:50:23.513Z,22.20
2018-07-14T07:52:52.976Z,22.20
2018-07-14T07:55:22.372Z,22.20
2018-07-14T07:57:51.941Z,22.20
2018-07-14T08:00:21.414Z,22.20
2018-07-14T08:02:50.839Z,22.30
2018-07-14T08:05:20.270Z,22.30
2018-07-14T08:07:49.618Z,22.30
2018-07-14T08:10:19.138Z,22.30
2018-07-14T08:12:48.894Z,22.30
2018-07-14T08:15:18.320Z,22.30
2018-07-14T08:17:47.747Z,22.30
2018-07-14T08:20:18.164Z,22.30
2018-07-14T08:22:47.669Z,22.40
2018-07-14T08:25:16.980Z,22.40
2018-07-14T08:27:46.545Z,22.40
2018-07-14T08:30:15.894Z,22.40
2018-07-14T08:32:45.174Z,22.40
2018-07-14T08:35:14.548Z,22.40
2018-07-14T08:37:43.941Z,22.40
2018-07-14T08:40:13.289Z,22.50
2018-07-14T08:42:42.701Z,22.50
2018-07-14T08:50:10.752Z,22.50
2018-07-14T08:52:40.190Z,22.50
2018-07-14T08:55:09.513Z,22.50
2018-07-14T08:57:38.857Z,22.60
2018-07-14T09:00:08.306Z,22.60
2018-07-14T09:02:38.192Z,22.60
2018-07-14T09:05:07.833Z,22.60
2018-07-14T09:07:37.220Z,22.60
2018-07-14T09:10:07.032Z,22.60
2018-07-14T09:12:37.002Z,22.60
2018-07-14T09:15:06.347Z,22.60
2018-07-14T09:17:35.760Z,22.60
2018-07-14T09:20:05.434Z,22.70
2018-07-14T09:22:34.832Z,22.70
2018-07-14T09:25:04.300Z,22.70
2018-07-14T09:27:34.395Z,22.70
2018-07-14T09:30:03.859Z,22.70
2018-07-14T09:32:33.404Z,22.70
2018-07-14T09:35:03.097Z,22.70
2018-07-14T09:37:32.432Z,22.70
2018-07-14T09:40:01.924Z,22.70
2018-07-14T09:42:31.265Z,22.70
2018-07-14T09:45:00.523Z,22.70
2018-07-14T09:47:29.885Z,22.80
2018-07-14T09:49:59.303Z,22.80
2018-07-14T09:52:28.732Z,22.80
2018-07-14T09:54:58.073Z,22.80
2018-07-14T09:57:33.608Z,22.80
2018-07-14T10:00:03.225Z,22.80
2018-07-14T10:02:32.652Z,22.80
2018-07-14T10:05:02.033Z,22.80
2018-07-14T10:07:31.421Z,22.80
2018-07-14T10:10:00.951Z,22.80
2018-07-14T10:12:30.328Z,22.80
2018-07-14T10:14:59.712Z,22.80
2018-07-14T10:17:29.080Z,22.80
2018-07-14T10:19:58.512Z,22.80
2018-07-14T10:22:27.877Z,22.80
2018-07-14T10:24:57.240Z,22.80
2018-07-14T10:27:26.531Z,22.80
2018-07-14T10:29:55.976Z,22.80
2018-07-14T10:32:25.275Z,22.80
2018-07-14T10:34:54.641Z,22.80
2018-07-14T10:37:23.941Z,22.80
2018-07-14T10:39:53.353Z,22.80
2018-07-14T10:42:22.780Z,22.80
2018-07-14T10:44:52.161Z,22.80
2018-07-14T10:47:21.456Z,22.80
2018-07-14T10:49:50.877Z,22.80
2018-07-14T10:52:20.289Z,22.80
2018-07-14T10:54:49.644Z,22.80
2018-07-14T10:57:18.971Z,22.80
2018-07-14T10:59:48.412Z,22.80
2018-07-14T11:02:17.783Z,22.80
2018-07-14T11:04:47.116Z,22.80
2018-07-14T11:07:16.578Z,22.80
2018-07-14T11:09:46.326Z,22.80
2018-07-14T11:12:15.666Z,22.80
2018-07-14T11:14:45.028Z,22.80
2018-07-14T11:17:14.451Z,22.80
2018-07-14T11:19:43.783Z,22.80
2018-07-14T11:22:13.649Z,22.80
2018-07-14T11:24:43.059Z,22.80
2018-07-14T11:27:12.429Z,22.90
2018-07-14T11:29:41.981Z,22.90
2018-07-14T11:32:11.357Z,22.90
2018-07-14T11:34:40.931Z,22.90
2018-07-14T11:37:10.301Z,22.90
2018-07-14T11:40:11.030Z,22.90
2018-07-14T11:42:40.385Z,22.90
2018-07-14T11:45:09.984Z,22.90
2018-07-14T11:47:39.435Z,22.90
2018-07-14T11:50:09.003Z,22.90
2018-07-14T11:52:38.468Z,22.90
2018-07-14T11:55:07.900Z,23.00
2018-07-14T11:57:37.293Z,22.90
2018-07-14T12:00:07.120Z,23.00
2018-07-14T12:02:36.508Z,23.00
2018-07-14T12:05:05.917Z,23.00
2018-07-14T12:07:35.354Z,23.00
2018-07-14T12:10:05.030Z,23.00
2018-07-14T12:12:34.725Z,23.00
2018-07-14T12:15:04.092Z,23.00
2018-07-14T12:17:33.541Z,23.00
2018-07-14T12:20:03.476Z,23.00
2018-07-14T12:22:33.236Z,23.00
2018-07-14T12:25:02.735Z,23.00
2018-07-14T12:27:32.271Z,23.00
2018-07-14T12:30:01.697Z,23.10
2018-07-14T12:32:31.064Z,23.10
2018-07-14T12:37:29.569Z,23.10
2018-07-14T12:42:28.105Z,23.10
2018-07-14T12:44:57.506Z,23.10
2018-07-14T12:47:27.152Z,23.10
2018-07-14T12:49:56.746Z,23.10
2018-07-14T12:52:26.238Z,23.10
2018-07-14T12:54:55.667Z,23.10
2018-07-14T12:57:25.131Z,23.10
2018-07-14T12:59:54.595Z,23.20
2018-07-14T13:02:26.880Z,23.20
2018-07-14T13:04:56.456Z,23.20
2018-07-14T13:07:25.757Z,23.20
2018-07-14T13:09:55.243Z,23.20
2018-07-14T13:12:24.572Z,23.20
2018-07-14T13:14:54.010Z,23.20
2018-07-14T13:17:23.418Z,23.20
2018-07-14T13:19:52.855Z,23.20
2018-07-14T13:22:22.147Z,23.20
2018-07-14T13:24:51.464Z,23.20
2018-07-14T13:27:20.858Z,23.20
2018-07-14T13:29:50.270Z,23.20
2018-07-14T13:32:19.866Z,23.20
2018-07-14T13:34:49.186Z,23.20
2018-07-14T13:37:18.666Z,23.20
2018-07-14T13:39:48.069Z,23.20
2018-07-14T13:42:17.466Z,23.20
2018-07-14T13:44:46.800Z,23.20
2018-07-14T13:47:16.213Z,23.20
2018-07-14T13:49:45.617Z,23.20
2018-07-14T13:52:14.988Z,23.30
2018-07-14T13:54:44.457Z,23.30
2018-07-14T13:57:13.880Z,23.30
2018-07-14T13:59:43.334Z,23.30
2018-07-14T14:02:12.668Z,23.30
2018-07-14T14:04:42.067Z,23.30
2018-07-14T14:07:11.459Z,23.30
2018-07-14T14:09:40.877Z,23.30
2018-07-14T14:12:10.227Z,23.30
2018-07-14T14:14:39.656Z,23.30
2018-07-14T14:17:08.994Z,23.30
2018-07-14T14:19:38.515Z,23.30
2018-07-14T14:22:08.028Z,23.30
2018-07-14T14:24:37.392Z,23.30
2018-07-14T14:27:06.857Z,23.30
2018-07-14T14:29:36.205Z,23.30
2018-07-14T14:32:05.534Z,23.30
2018-07-14T14:34:34.853Z,23.30
2018-07-14T14:37:04.226Z,23.30
2018-07-14T14:39:33.693Z,23.30
2018-07-14T14:42:02.980Z,23.30
2018-07-14T14:44:32.505Z,23.30
2018-07-14T14:47:01.759Z,23.30
2018-07-14T14:49:31.132Z,23.30
2018-07-14T14:52:00.684Z,23.30
2018-07-14T14:54:30.376Z,23.30
2018-07-14T14:56:59.842Z,23.30
2018-07-14T14:59:29.348Z,23.30
2018-07-14T15:01:58.710Z,23.30
2018-07-14T15:04:28.063Z,23.40
2018-07-14T15:06:57.383Z,23.40
2018-07-14T15:09:26.784Z,23.40
2018-07-14T15:11:56.189Z,23.40
2018-07-14T15:14:25.524Z,23.40
2018-07-14T15:16:54.868Z,23.40
2018-07-14T15:19:24.240Z,23.40
2018-07-14T15:21:53.725Z,23.40
2018-07-14T15:24:23.193Z,23.40
2018-07-14T15:26:52.947Z,23.40
2018-07-14T15:29:22.356Z,23.40
2018-07-14T15:31:52.136Z,23.40
2018-07-14T15:34:21.524Z,23.40
2018-07-14T15:36:50.887Z,23.40
2018-07-14T15:39:20.413Z,23.40
2018-07-14T15:41:49.701Z,23.40
2018-07-14T15:44:19.080Z,23.40
2018-07-14T15:46:48.409Z,23.40
2018-07-14T15:49:17.865Z,23.40
2018-07-14T15:51:47.291Z,23.40
2018-07-14T15:54:16.631Z,23.40
2018-07-14T15:56:46.036Z,23.40
2018-07-14T15:59:15.838Z,23.50
2018-07-14T16:01:45.146Z,23.50
2018-07-14T16:04:14.438Z,23.50
2018-07-14T16:06:43.679Z,23.50
2018-07-14T16:09:13.106Z,23.50
2018-07-14T16:11:42.472Z,23.50
2018-07-14T16:14:11.784Z,23.50
2018-07-14T16:16:41.173Z,23.50
2018-07-14T16:19:10.600Z,23.50
2018-07-14T16:21:39.968Z,23.50
2018-07-14T16:24:09.272Z,23.50
2018-07-14T16:26:38.575Z,23.50
2018-07-14T16:29:08.078Z,23.50
2018-07-14T16:31:37.930Z,23.50
2018-07-14T16:34:07.389Z,23.50
2018-07-14T16:36:36.716Z,23.50
2018-07-14T16:39:08.407Z,23.50
2018-07-14T16:41:37.755Z,23.50
2018-07-14T16:44:07.025Z,23.50
2018-07-14T16:46:36.292Z,23.50
2018-07-14T16:49:05.855Z,23.50
2018-07-14T16:51:35.170Z,23.50
2018-07-14T16:54:04.464Z,23.50
2018-07-14T16:56:33.742Z,23.50
2018-07-14T16:59:03.120Z,23.50
2018-07-14T17:01:32.524Z,23.50
2018-07-14T17:04:02.069Z,23.50
2018-07-14T17:06:31.481Z,23.50
2018-07-14T17:09:00.944Z,23.50
2018-07-14T17:11:30.219Z,23.50
2018-07-14T17:13:59.584Z,23.50
2018-07-14T17:16:28.922Z,23.50
2018-07-14T17:18:58.411Z,23.50
2018-07-14T17:21:27.786Z,23.50
2018-07-14T17:23:57.068Z,23.50
2018-07-14T17:26:26.442Z,23.50
2018-07-14T17:31:24.621Z,23.50
2018-07-14T17:33:54.053Z,23.50
2018-07-14T17:36:23.324Z,23.50
2018-07-14T17:38:52.791Z,23.60
2018-07-14T17:41:22.153Z,23.60
2018-07-14T17:43:51.535Z,23.60
2018-07-14T17:46:20.896Z,23.60
2018-07-14T17:48:50.140Z,23.60
2018-07-14T17:51:19.484Z,23.60
2018-07-14T17:53:48.815Z,23.60
2018-07-14T17:56:18.144Z,23.50
2018-07-14T17:58:47.746Z,23.40
2018-07-14T18:01:17.021Z,23.30
2018-07-14T18:03:46.320Z,23.30
2018-07-14T18:06:16.146Z,23.30
2018-07-14T18:08:45.569Z,23.20
2018-07-14T18:11:14.892Z,23.20
2018-07-14T18:13:44.299Z,23.20
2018-07-14T18:16:13.562Z,23.20
2018-07-14T18:18:42.968Z,23.20
2018-07-14T18:21:12.297Z,23.20
2018-07-14T18:23:41.696Z,23.20
2018-07-14T18:26:11.127Z,23.30
2018-07-14T18:28:40.560Z,23.30
2018-07-14T18:31:09.927Z,23.20
2018-07-14T18:33:39.229Z,23.10
2018-07-14T18:36:08.586Z,23.10
2018-07-14T18:38:38.430Z,23.10
2018-07-14T18:41:07.810Z,23.20
2018-07-14T18:43:37.138Z,23.20
2018-07-14T18:46:06.451Z,23.10
2018-07-14T18:48:35.799Z,23.10
2018-07-14T18:51:05.086Z,23.10
2018-07-14T18:53:34.413Z,23.10
2018-07-14T18:56:03.661Z,23.10
2018-07-14T18:58:33.037Z,23.10
2018-07-14T19:01:02.468Z,23.00
2018-07-14T19:03:31.774Z,23.00
2018-07-14T19:06:01.055Z,23.00
2018-07-14T19:08:30.444Z,23.00
2018-07-14T19:10:59.860Z,23.00
2018-07-14T19:13:29.216Z,23.00
2018-07-14T19:15:58.568Z,23.10
2018-07-14T19:18:27.921Z,23.10
2018-07-14T19:20:57.288Z,23.10
2018-07-14T19:23:26.619Z,23.00
2018-07-14T19:25:56.047Z,22.90
2018-07-14T19:28:25.353Z,22.80
2018-07-14T19:30:54.720Z,22.80
2018-07-14T19:33:24.107Z,22.70
2018-07-14T19:35:53.388Z,22.70
2018-07-14T19:38:22.747Z,22.70
2018-07-14T19:40:52.064Z,22.70
2018-07-14T19:43:21.587Z,22.60
2018-07-14T19:45:51.144Z,22.50
2018-07-14T19:48:20.548Z,22.50
2018-07-14T19:50:49.914Z,22.50
2018-07-14T19:53:19.232Z,22.50
2018-07-14T19:55:48.600Z,22.50
2018-07-14T19:58:18.168Z,22.50
2018-07-14T20:00:47.533Z,22.50
2018-07-14T20:03:17.015Z,22.40
2018-07-14T20:05:46.419Z,22.30
2018-07-14T20:08:15.824Z,22.30
2018-07-14T20:10:45.124Z,22.40
2018-07-14T20:13:14.485Z,22.40
2018-07-14T20:15:43.835Z,22.40
2018-07-14T20:18:13.222Z,22.40
2018-07-14T20:20:42.469Z,22.50
2018-07-14T20:23:11.836Z,22.60
2018-07-14T20:25:41.160Z,22.60
2018-07-14T20:28:10.550Z,22.70
2018-07-14T20:30:40.537Z,22.70
2018-07-14T20:33:10.366Z,22.80
2018-07-14T20:35:39.881Z,22.80
2018-07-14T20:38:09.359Z,22.80
2018-07-14T20:40:38.930Z,22.90
2018-07-14T20:43:08.378Z,22.90
2018-07-14T20:45:37.857Z,22.90
2018-07-14T20:48:07.412Z,22.90
2018-07-14T20:50:37.076Z,22.90
2018-07-14T20:53:06.588Z,23.00
2018-07-14T20:55:36.146Z,23.00
2018-07-14T20:58:06.020Z,23.00
2018-07-14T21:00:35.591Z,23.00
2018-07-14T21:03:05.153Z,23.00
2018-07-14T21:05:34.765Z,23.00
2018-07-14T21:08:04.685Z,23.00
2018-07-14T21:10:34.388Z,23.00
2018-07-14T21:13:03.901Z,23.00
2018-07-14T21:15:33.628Z,23.00
2018-07-14T21:18:03.143Z,23.00
2018-07-14T21:22:02.210Z,23.10
2018-07-14T21:24:31.796Z,23.00
2018-07-14T21:27:01.521Z,23.00
2018-07-14T21:29:31.168Z,22.80
2018-07-14T21:32:00.396Z,22.70
2018-07-14T21:34:29.655Z,22.60
2018-07-14T21:36:58.852Z,22.50
2018-07-14T21:39:28.054Z,22.40
2018-07-14T21:41:57.221Z,22.40
2018-07-14T21:44:26.413Z,22.30
2018-07-14T21:46:55.616Z,22.30
2018-07-14T21:49:25.308Z,22.10
2018-07-14T21:51:54.598Z,22.10
2018-07-14T21:54:24.101Z,22.00
2018-07-14T21:56:53.357Z,21.90
2018-07-14T21:59:22.564Z,21.90
2018-07-14T22:01:52.748Z,21.90
2018-07-14T22:04:22.454Z,21.80
2018-07-14T22:06:52.480Z,21.80
2018-07-14T22:09:21.745Z,21.70
2018-07-14T22:11:51.044Z,21.70
2018-07-14T22:14:20.245Z,21.70
2018-07-14T22:16:49.445Z,21.70
2018-07-14T22:19:18.709Z,21.80
2018-07-14T22:21:47.905Z,21.70
2018-07-14T22:24:17.175Z,21.70
2018-07-14T22:26:46.372Z,21.70
2018-07-14T22:29:15.692Z,21.60
2018-07-14T22:31:44.872Z,21.60
2018-07-14T22:34:14.069Z,21.50
2018-07-14T22:36:43.305Z,21.50
2018-07-14T22:39:12.661Z,21.40
2018-07-14T22:41:45.967Z,21.50
2018-07-14T22:44:15.183Z,21.40
2018-07-14T22:46:44.395Z,21.40
2018-07-14T22:49:13.697Z,21.40
2018-07-14T22:51:42.890Z,21.40
2018-07-14T22:56:40.984Z,21.30
2018-07-14T22:59:10.381Z,21.30
2018-07-14T23:01:39.571Z,21.30
2018-07-14T23:04:08.818Z,21.30
2018-07-14T23:06:38.045Z,21.30
2018-07-14T23:09:08.571Z,21.30
2018-07-14T23:11:37.799Z,21.30
2018-07-14T23:14:07.026Z,21.10
2018-07-14T23:19:05.050Z,21.20
2018-07-14T23:21:34.219Z,21.30
2018-07-14T23:24:03.423Z,21.30
2018-07-14T23:26:32.646Z,21.30
2018-07-14T23:29:02.049Z,21.20
2018-07-14T23:31:31.256Z,21.10
2018-07-14T23:34:00.450Z,21.10
2018-07-14T23:36:29.612Z,21.00
2018-07-14T23:38:58.873Z,21.00
2018-07-14T23:41:28.074Z,21.00
2018-07-14T23:43:57.316Z,21.00
2018-07-14T23:46:26.536Z,21.00
2018-07-14T23:48:55.773Z,21.00
2018-07-14T23:51:24.972Z,21.00
2018-07-14T23:53:54.168Z,21.00
2018-07-14T23:56:23.446Z,21.00
2018-07-14T23:58:52.703Z,21.00
